LGL15 LFPG-EGPH
Flight info
| Callsign | LGL15 |
|---|---|
| Flight time | N/A |
| Altitude | 40000 |
| Route | ATREX6H/08L ATREX DCT VESAN DCT RATUK DCT SOVAT L613 LEHOC DCT INPIP |
| Aircraft | A339/H-SADE1E2E3GHIJ3J5M1P2RWXY/LB2D1 |
Departure
| Time | N/A |
|---|---|
| Airport | Charles de Gaulle International Airport (LFPG) |
Arrival
| Time | 2026-05-01 07:36 |
|---|---|
| Airport | Edinburgh Airport (EGPH) |
| Time | Latitude | Longitude | Altitude | Speed | Heading |
|---|---|---|---|---|---|
| 2026-05-01 07:23 | 55.38337 | -3.26641 | 15457 ft | 338 kts | 335° |
| 2026-05-01 07:23 | 55.42355 | -3.29624 | 14335 ft | 330 kts | 335° |
| 2026-05-01 07:24 | 55.44323 | -3.31089 | 13786 ft | 327 kts | 335° |
| 2026-05-01 07:24 | 55.46304 | -3.32565 | 13218 ft | 323 kts | 335° |
| 2026-05-01 07:24 | 55.48282 | -3.34038 | 12652 ft | 320 kts | 335° |
| 2026-05-01 07:24 | 55.50197 | -3.35762 | 12060 ft | 315 kts | 324° |
| 2026-05-01 07:25 | 55.51949 | -3.38037 | 11473 ft | 309 kts | 318° |
| 2026-05-01 07:25 | 55.53547 | -3.40394 | 10904 ft | 306 kts | 316° |
| 2026-05-01 07:25 | 55.55072 | -3.42691 | 10357 ft | 303 kts | 316° |
| 2026-05-01 07:25 | 55.56567 | -3.44933 | 9815 ft | 301 kts | 317° |
| 2026-05-01 07:26 | 55.58070 | -3.47169 | 9282 ft | 298 kts | 317° |
| 2026-05-01 07:26 | 55.59541 | -3.49343 | 8795 ft | 293 kts | 317° |
| 2026-05-01 07:26 | 55.61012 | -3.51505 | 8555 ft | 280 kts | 317° |
| 2026-05-01 07:26 | 55.62474 | -3.53653 | 8450 ft | 273 kts | 317° |
| 2026-05-01 07:27 | 55.63905 | -3.55760 | 8352 ft | 267 kts | 317° |
| 2026-05-01 07:27 | 55.65310 | -3.57882 | 8216 ft | 261 kts | 316° |
| 2026-05-01 07:27 | 55.66607 | -3.59899 | 8107 ft | 255 kts | 316° |
| 2026-05-01 07:27 | 55.67908 | -3.61928 | 7970 ft | 249 kts | 316° |
| 2026-05-01 07:28 | 55.69200 | -3.63937 | 7676 ft | 248 kts | 316° |
| 2026-05-01 07:28 | 55.70485 | -3.65867 | 7355 ft | 249 kts | 316° |
| 2026-05-01 07:28 | 55.71680 | -3.67624 | 7241 ft | 244 kts | 317° |
| 2026-05-01 07:28 | 55.72865 | -3.69363 | 7071 ft | 242 kts | 317° |
| 2026-05-01 07:29 | 55.74035 | -3.71085 | 6862 ft | 241 kts | 317° |
| 2026-05-01 07:29 | 55.75213 | -3.72824 | 6652 ft | 240 kts | 317° |
| 2026-05-01 07:29 | 55.76375 | -3.74620 | 6482 ft | 236 kts | 315° |
| 2026-05-01 07:29 | 55.77703 | -3.76137 | 6195 ft | 237 kts | 346° |
| 2026-05-01 07:30 | 55.79291 | -3.76051 | 5941 ft | 235 kts | 16° |
| 2026-05-01 07:30 | 55.80773 | -3.74986 | 5657 ft | 231 kts | 30° |
| 2026-05-01 07:30 | 55.82078 | -3.73466 | 5398 ft | 226 kts | 40° |
| 2026-05-01 07:30 | 55.83143 | -3.71726 | 5190 ft | 219 kts | 49° |
| 2026-05-01 07:31 | 55.84008 | -3.69801 | 5047 ft | 208 kts | 58° |
| 2026-05-01 07:31 | 55.86151 | -3.63339 | 4061 ft | 209 kts | 61° |
| 2026-05-01 07:32 | 55.87477 | -3.59406 | 3635 ft | 192 kts | 60° |
| 2026-05-01 07:32 | 55.88162 | -3.57535 | 3206 ft | 193 kts | 59° |
| 2026-05-01 07:33 | 55.89465 | -3.53943 | 2488 ft | 191 kts | 65° |
| 2026-05-01 07:33 | 55.90048 | -3.52028 | 2116 ft | 190 kts | 63° |
| 2026-05-01 07:33 | 55.91282 | -3.48365 | 1486 ft | 186 kts | 59° |
| 2026-05-01 07:34 | 55.91903 | -3.46563 | 1336 ft | 174 kts | 63° |
| 2026-05-01 07:34 | 55.93006 | -3.43129 | 807 ft | 167 kts | 58° |
| 2026-05-01 07:34 | 55.93574 | -3.41489 | 554 ft | 164 kts | 59° |
| 2026-05-01 07:35 | 55.94119 | -3.39877 | 293 ft | 162 kts | 59° |
| 2026-05-01 07:35 | 55.94639 | -3.38342 | 126 ft | 156 kts | 58° |
| 2026-05-01 07:35 | 55.95115 | -3.36969 | 114 ft | 109 kts | 56° |
| 2026-05-01 07:35 | 55.95345 | -3.36228 | 114 ft | 60 kts | 58° |
| 2026-05-01 07:36 | 55.95520 | -3.35728 | 114 ft | 36 kts | 57° |
| 2026-05-01 07:36 | 55.95553 | -3.35499 | 114 ft | 15 kts | 133° |
| 2026-05-01 07:36 | 55.95483 | -3.35421 | 114 ft | 11 kts | 151° |
| 2026-05-01 07:36 | 55.95430 | -3.35428 | 115 ft | 8 kts | 203° |
| 2026-05-01 07:37 | 55.95376 | -3.35550 | 115 ft | 11 kts | 240° |
| 2026-05-01 07:37 | 55.95340 | -3.35671 | 115 ft | 13 kts | 241° |
| 2026-05-01 07:37 | 55.95298 | -3.35798 | 115 ft | 13 kts | 238° |
| 2026-05-01 07:38 | 55.95248 | -3.35935 | 115 ft | 10 kts | 219° |
| 2026-05-01 07:38 | 55.95178 | -3.35965 | 115 ft | 10 kts | 174° |
| 2026-05-01 07:38 | 55.95093 | -3.35831 | 115 ft | 11 kts | 120° |
| 2026-05-01 07:39 | 55.95058 | -3.35712 | 115 ft | 12 kts | 115° |
| 2026-05-01 07:39 | 55.95020 | -3.35573 | 116 ft | 16 kts | 116° |
| 2026-05-01 07:39 | 55.94914 | -3.35227 | 118 ft | 16 kts | 118° |
| 2026-05-01 07:40 | 55.94859 | -3.35041 | 120 ft | 15 kts | 117° |
| 2026-05-01 07:40 | 55.94804 | -3.34877 | 121 ft | 13 kts | 126° |
| 2026-05-01 07:40 | 55.94751 | -3.34828 | 122 ft | 5 kts | 201° |
| 2026-05-01 07:40 | 55.94721 | -3.34885 | 121 ft | 7 kts | 235° |
| 2026-05-01 07:41 | 55.94687 | -3.34979 | 120 ft | 9 kts | 240° |
| 2026-05-01 07:41 | 55.94655 | -3.35013 | 120 ft | 5 kts | 162° |